sensor_id;sensor_type;location;lat;lon;timestamp;temperature;humidity
49413;DHT22;35493;50.276;9.372;2024-01-15T00:02:18;-3276.00;84.60
49413;DHT22;35493;50.276;9.372;2024-01-15T00:04:51;-3276.00;84.70
49413;DHT22;35493;50.276;9.372;2024-01-15T00:07:24;-3276.00;84.80
49413;DHT22;35493;50.276;9.372;2024-01-15T00:09:57;-3276.00;84.70
49413;DHT22;35493;50.276;9.372;2024-01-15T00:12:32;-3275.90;84.90
49413;DHT22;35493;50.276;9.372;2024-01-15T00:15:06;-3276.00;85.00
49413;DHT22;35493;50.276;9.372;2024-01-15T00:17:39;-3276.00;84.80
49413;DHT22;35493;50.276;9.372;2024-01-15T00:20:12;-3276.00;84.80
49413;DHT22;35493;50.276;9.372;2024-01-15T00:22:45;-3276.00;84.80
49413;DHT22;35493;50.276;9.372;2024-01-15T00:25:18;-3276.00;85.00
49413;DHT22;35493;50.276;9.372;2024-01-15T00:27:53;-3276.00;84.70
49413;DHT22;35493;50.276;9.372;2024-01-15T00:30:26;-3275.90;84.90
49413;DHT22;35493;50.276;9.372;2024-01-15T00:32:59;-3275.90;84.90
49413;DHT22;35493;50.276;9.372;2024-01-15T00:35:32;-3275.90;84.80
49413;DHT22;35493;50.276;9.372;2024-01-15T00:38:05;-3275.90;84.90
49413;DHT22;35493;50.276;9.372;2024-01-15T00:40:39;-3276.00;84.70
49413;DHT22;35493;50.276;9.372;2024-01-15T00:43:14;-3275.90;84.80
49413;DHT22;35493;50.276;9.372;2024-01-15T00:45:49;-3276.00;84.90
49413;DHT22;35493;50.276;9.372;2024-01-15T00:48:22;-3276.00;84.80
49413;DHT22;35493;50.276;9.372;2024-01-15T00:50:55;-3275.90;84.80
49413;DHT22;35493;50.276;9.372;2024-01-15T00:53:28;-3275.90;84.80
49413;DHT22;35493;50.276;9.372;2024-01-15T00:56:01;-3276.00;84.80
49413;DHT22;35493;50.276;9.372;2024-01-15T00:58:36;-3275.90;84.80
49413;DHT22;35493;50.276;9.372;2024-01-15T01:01:09;-3275.90;84.90
49413;DHT22;35493;50.276;9.372;2024-01-15T01:03:36;-3275.90;84.90
49413;DHT22;35493;50.276;9.372;2024-01-15T01:06:09;-3275.90;85.10
49413;DHT22;35493;50.276;9.372;2024-01-15T01:08:42;-3276.00;85.00
49413;DHT22;35493;50.276;9.372;2024-01-15T01:11:16;-3276.00;85.10
49413;DHT22;35493;50.276;9.372;2024-01-15T01:13:50;-3276.00;85.00
49413;DHT22;35493;50.276;9.372;2024-01-15T01:16:23;-3276.00;85.10
49413;DHT22;35493;50.276;9.372;2024-01-15T01:18:56;-3276.00;85.00
49413;DHT22;35493;50.276;9.372;2024-01-15T01:21:23;-3276.00;85.20
49413;DHT22;35493;50.276;9.372;2024-01-15T01:23:56;-3276.00;85.20
49413;DHT22;35493;50.276;9.372;2024-01-15T01:26:29;-3276.00;85.40
49413;DHT22;35493;50.276;9.372;2024-01-15T01:29:04;-3275.90;85.30
49413;DHT22;35493;50.276;9.372;2024-01-15T01:31:36;-3275.90;85.40
49413;DHT22;35493;50.276;9.372;2024-01-15T01:34:15;-3275.90;85.50
49413;DHT22;35493;50.276;9.372;2024-01-15T01:36:48;-3275.90;85.70
49413;DHT22;35493;50.276;9.372;2024-01-15T01:39:21;-3276.00;85.70
49413;DHT22;35493;50.276;9.372;2024-01-15T01:41:54;-3276.00;85.50
49413;DHT22;35493;50.276;9.372;2024-01-15T01:44:29;-3276.00;85.60
49413;DHT22;35493;50.276;9.372;2024-01-15T01:47:01;-3276.00;85.60
49413;DHT22;35493;50.276;9.372;2024-01-15T01:49:34;-3276.00;85.60
49413;DHT22;35493;50.276;9.372;2024-01-15T01:52:09;-3276.00;85.80
49413;DHT22;35493;50.276;9.372;2024-01-15T01:54:42;-3275.90;85.70
49413;DHT22;35493;50.276;9.372;2024-01-15T01:57:15;-3276.00;85.80
49413;DHT22;35493;50.276;9.372;2024-01-15T01:59:51;-3275.90;85.70
49413;DHT22;35493;50.276;9.372;2024-01-15T02:02:25;-3275.90;85.70
49413;DHT22;35493;50.276;9.372;2024-01-15T02:04:58;-3275.90;85.70
49413;DHT22;35493;50.276;9.372;2024-01-15T02:07:34;-3275.90;85.80
49413;DHT22;35493;50.276;9.372;2024-01-15T02:10:08;-3275.90;85.90
49413;DHT22;35493;50.276;9.372;2024-01-15T02:12:42;-3275.90;85.80
49413;DHT22;35493;50.276;9.372;2024-01-15T02:15:17;-3276.00;85.70
49413;DHT22;35493;50.276;9.372;2024-01-15T02:17:56;-3275.90;85.70
49413;DHT22;35493;50.276;9.372;2024-01-15T02:20:30;-3275.90;85.70
49413;DHT22;35493;50.276;9.372;2024-01-15T02:23:09;-3275.90;85.60
49413;DHT22;35493;50.276;9.372;2024-01-15T02:25:43;-3275.90;85.80
49413;DHT22;35493;50.276;9.372;2024-01-15T02:28:17;-3275.90;85.80
49413;DHT22;35493;50.276;9.372;2024-01-15T02:30:49;-3275.90;85.80
49413;DHT22;35493;50.276;9.372;2024-01-15T02:33:22;-3275.90;85.80
49413;DHT22;35493;50.276;9.372;2024-01-15T02:35:55;-3275.90;85.70
49413;DHT22;35493;50.276;9.372;2024-01-15T02:38:30;-3275.90;85.80
49413;DHT22;35493;50.276;9.372;2024-01-15T02:41:04;-3275.90;85.80
49413;DHT22;35493;50.276;9.372;2024-01-15T02:43:30;-3276.00;85.80
49413;DHT22;35493;50.276;9.372;2024-01-15T02:46:03;-3276.00;85.70
49413;DHT22;35493;50.276;9.372;2024-01-15T02:48:36;-3276.00;85.80
49413;DHT22;35493;50.276;9.372;2024-01-15T02:51:03;-3276.00;85.80
49413;DHT22;35493;50.276;9.372;2024-01-15T02:53:38;-3276.00;85.80
49413;DHT22;35493;50.276;9.372;2024-01-15T02:56:11;-3275.90;85.80
49413;DHT22;35493;50.276;9.372;2024-01-15T02:58:44;-3275.90;86.00
49413;DHT22;35493;50.276;9.372;2024-01-15T03:01:18;-3275.90;86.00
49413;DHT22;35493;50.276;9.372;2024-01-15T03:03:52;-3276.00;86.20
49413;DHT22;35493;50.276;9.372;2024-01-15T03:06:26;-3276.00;86.00
49413;DHT22;35493;50.276;9.372;2024-01-15T03:09:01;-3276.00;86.10
49413;DHT22;35493;50.276;9.372;2024-01-15T03:11:37;-3276.00;86.20
49413;DHT22;35493;50.276;9.372;2024-01-15T03:14:03;-3276.00;86.20
49413;DHT22;35493;50.276;9.372;2024-01-15T03:16:36;-3276.00;86.20
49413;DHT22;35493;50.276;9.372;2024-01-15T03:19:09;-3276.00;86.30
49413;DHT22;35493;50.276;9.372;2024-01-15T03:21:42;-3275.90;86.30
49413;DHT22;35493;50.276;9.372;2024-01-15T03:24:17;-3275.90;86.50
49413;DHT22;35493;50.276;9.372;2024-01-15T03:26:50;-3275.90;86.40
49413;DHT22;35493;50.276;9.372;2024-01-15T03:29:23;-3276.00;86.30
49413;DHT22;35493;50.276;9.372;2024-01-15T03:31:56;-3276.00;86.10
49413;DHT22;35493;50.276;9.372;2024-01-15T03:34:29;-3276.00;86.30
49413;DHT22;35493;50.276;9.372;2024-01-15T03:37:03;-3276.00;86.40
49413;DHT22;35493;50.276;9.372;2024-01-15T03:39:38;-3276.00;86.20
49413;DHT22;35493;50.276;9.372;2024-01-15T03:42:05;-3276.00;86.20
49413;DHT22;35493;50.276;9.372;2024-01-15T03:44:38;-3276.00;86.30
49413;DHT22;35493;50.276;9.372;2024-01-15T03:47:11;-3276.10;86.10
49413;DHT22;35493;50.276;9.372;2024-01-15T03:49:44;-3276.10;86.00
49413;DHT22;35493;50.276;9.372;2024-01-15T03:52:17;-3276.10;85.90
49413;DHT22;35493;50.276;9.372;2024-01-15T03:54:52;-3276.00;85.90
49413;DHT22;35493;50.276;9.372;2024-01-15T03:57:25;-3276.10;86.10
49413;DHT22;35493;50.276;9.372;2024-01-15T03:59:58;-3276.00;85.90
49413;DHT22;35493;50.276;9.372;2024-01-15T04:02:32;-3276.00;86.10
49413;DHT22;35493;50.276;9.372;2024-01-15T04:05:05;-3276.00;86.10
49413;DHT22;35493;50.276;9.372;2024-01-15T04:07:38;-3276.00;86.20
49413;DHT22;35493;50.276;9.372;2024-01-15T04:10:12;-3276.00;86.10
49413;DHT22;35493;50.276;9.372;2024-01-15T04:12:46;-3276.00;86.10
49413;DHT22;35493;50.276;9.372;2024-01-15T04:15:18;-3276.00;86.20
49413;DHT22;35493;50.276;9.372;2024-01-15T04:17:51;-3276.00;86.10
49413;DHT22;35493;50.276;9.372;2024-01-15T04:20:25;-3276.10;86.20
49413;DHT22;35493;50.276;9.372;2024-01-15T04:22:57;-3276.10;86.10
49413;DHT22;35493;50.276;9.372;2024-01-15T04:25:32;-3276.10;86.00
49413;DHT22;35493;50.276;9.372;2024-01-15T04:28:05;-3276.10;86.10
49413;DHT22;35493;50.276;9.372;2024-01-15T04:30:38;-3276.10;86.10
49413;DHT22;35493;50.276;9.372;2024-01-15T04:33:05;-3276.10;86.10
49413;DHT22;35493;50.276;9.372;2024-01-15T04:35:38;-3276.10;86.30
49413;DHT22;35493;50.276;9.372;2024-01-15T04:38:12;-3276.10;86.20
49413;DHT22;35493;50.276;9.372;2024-01-15T04:40:46;-3276.10;86.20
49413;DHT22;35493;50.276;9.372;2024-01-15T04:43:12;-3276.10;86.30
49413;DHT22;35493;50.276;9.372;2024-01-15T04:45:45;-3276.10;86.20
49413;DHT22;35493;50.276;9.372;2024-01-15T04:48:19;-3276.10;86.30
49413;DHT22;35493;50.276;9.372;2024-01-15T04:50:51;-3276.10;86.30
49413;DHT22;35493;50.276;9.372;2024-01-15T04:53:25;-3276.10;86.30
49413;DHT22;35493;50.276;9.372;2024-01-15T04:55:59;-3276.00;86.40
49413;DHT22;35493;50.276;9.372;2024-01-15T04:58:33;-3276.10;86.40
49413;DHT22;35493;50.276;9.372;2024-01-15T05:01:07;-3276.00;86.40
49413;DHT22;35493;50.276;9.372;2024-01-15T05:03:41;-3276.10;86.50
49413;DHT22;35493;50.276;9.372;2024-01-15T05:06:14;-3276.20;86.50
49413;DHT22;35493;50.276;9.372;2024-01-15T05:08:47;-3276.10;86.30
49413;DHT22;35493;50.276;9.372;2024-01-15T05:11:21;-3276.10;86.40
49413;DHT22;35493;50.276;9.372;2024-01-15T05:13:55;-3276.10;86.50
49413;DHT22;35493;50.276;9.372;2024-01-15T05:16:35;-3276.10;86.60
49413;DHT22;35493;50.276;9.372;2024-01-15T05:19:08;-3276.10;86.60
49413;DHT22;35493;50.276;9.372;2024-01-15T05:27:06;-3276.10;86.70
49413;DHT22;35493;50.276;9.372;2024-01-15T05:29:39;-3276.10;86.60
49413;DHT22;35493;50.276;9.372;2024-01-15T05:32:12;-3276.10;86.60
49413;DHT22;35493;50.276;9.372;2024-01-15T05:34:45;-3276.10;86.70
49413;DHT22;35493;50.276;9.372;2024-01-15T05:37:18;-3276.10;86.70
49413;DHT22;35493;50.276;9.372;2024-01-15T05:39:51;-3276.10;86.70
49413;DHT22;35493;50.276;9.372;2024-01-15T05:42:25;-3276.10;86.70
49413;DHT22;35493;50.276;9.372;2024-01-15T05:44:59;-3276.10;86.70
49413;DHT22;35493;50.276;9.372;2024-01-15T05:47:34;-3276.10;86.70
49413;DHT22;35493;50.276;9.372;2024-01-15T05:50:07;-3276.10;86.70
49413;DHT22;35493;50.276;9.372;2024-01-15T05:52:41;-3276.10;86.70
49413;DHT22;35493;50.276;9.372;2024-01-15T05:55:14;-3276.10;86.70
49413;DHT22;35493;50.276;9.372;2024-01-15T05:57:48;-3276.10;86.70
49413;DHT22;35493;50.276;9.372;2024-01-15T06:00:22;-3276.10;86.60
49413;DHT22;35493;50.276;9.372;2024-01-15T06:02:55;-3276.10;86.70
49413;DHT22;35493;50.276;9.372;2024-01-15T06:05:28;-3276.10;86.80
49413;DHT22;35493;50.276;9.372;2024-01-15T06:08:01;-3276.10;86.70
49413;DHT22;35493;50.276;9.372;2024-01-15T06:10:34;-3276.10;86.80
49413;DHT22;35493;50.276;9.372;2024-01-15T06:13:09;-3276.10;86.80
49413;DHT22;35493;50.276;9.372;2024-01-15T06:15:43;-3276.10;86.80
49413;DHT22;35493;50.276;9.372;2024-01-15T06:18:16;-3276.10;86.90
49413;DHT22;35493;50.276;9.372;2024-01-15T06:20:49;-3276.10;86.90
49413;DHT22;35493;50.276;9.372;2024-01-15T06:23:22;-3276.20;86.80
49413;DHT22;35493;50.276;9.372;2024-01-15T06:25:55;-3276.20;86.80
49413;DHT22;35493;50.276;9.372;2024-01-15T06:28:29;-3276.20;86.80
49413;DHT22;35493;50.276;9.372;2024-01-15T06:31:03;-3276.20;86.80
49413;DHT22;35493;50.276;9.372;2024-01-15T06:33:38;-3276.20;86.90
49413;DHT22;35493;50.276;9.372;2024-01-15T06:36:11;-3276.20;86.90
49413;DHT22;35493;50.276;9.372;2024-01-15T06:38:48;-3276.20;87.10
49413;DHT22;35493;50.276;9.372;2024-01-15T06:41:21;-3276.20;87.10
49413;DHT22;35493;50.276;9.372;2024-01-15T06:43:55;-3276.20;87.10
49413;DHT22;35493;50.276;9.372;2024-01-15T06:46:29;-3276.20;87.10
49413;DHT22;35493;50.276;9.372;2024-01-15T06:49:02;-3276.20;87.10
49413;DHT22;35493;50.276;9.372;2024-01-15T06:51:35;-3276.20;87.20
49413;DHT22;35493;50.276;9.372;2024-01-15T06:54:08;-3276.20;87.20
49413;DHT22;35493;50.276;9.372;2024-01-15T06:56:41;-3276.20;87.10
49413;DHT22;35493;50.276;9.372;2024-01-15T06:59:15;-3276.20;87.10
49413;DHT22;35493;50.276;9.372;2024-01-15T07:01:49;-3276.20;87.20
49413;DHT22;35493;50.276;9.372;2024-01-15T07:04:22;-3276.20;87.10
49413;DHT22;35493;50.276;9.372;2024-01-15T07:06:55;-3276.30;87.00
49413;DHT22;35493;50.276;9.372;2024-01-15T07:09:21;-3276.30;86.90
49413;DHT22;35493;50.276;9.372;2024-01-15T07:11:55;-3276.30;86.80
49413;DHT22;35493;50.276;9.372;2024-01-15T07:14:30;-3276.40;86.90
49413;DHT22;35493;50.276;9.372;2024-01-15T07:17:04;-3276.30;87.10
49413;DHT22;35493;50.276;9.372;2024-01-15T07:19:37;-3276.30;87.20
49413;DHT22;35493;50.276;9.372;2024-01-15T07:22:16;-3276.40;87.10
49413;DHT22;35493;50.276;9.372;2024-01-15T07:24:50;-3276.30;87.10
49413;DHT22;35493;50.276;9.372;2024-01-15T07:27:23;-3276.30;87.10
49413;DHT22;35493;50.276;9.372;2024-01-15T07:29:57;-3276.30;87.10
49413;DHT22;35493;50.276;9.372;2024-01-15T07:32:31;-3276.30;87.10
49413;DHT22;35493;50.276;9.372;2024-01-15T07:35:04;-3276.30;87.10
49413;DHT22;35493;50.276;9.372;2024-01-15T07:37:38;-3276.30;87.20
49413;DHT22;35493;50.276;9.372;2024-01-15T07:40:11;-3276.30;87.20
49413;DHT22;35493;50.276;9.372;2024-01-15T07:42:44;-3276.30;87.20
49413;DHT22;35493;50.276;9.372;2024-01-15T07:45:25;-3276.40;87.10
49413;DHT22;35493;50.276;9.372;2024-01-15T07:47:58;-3276.40;87.20
49413;DHT22;35493;50.276;9.372;2024-01-15T07:50:31;-3276.40;87.20
49413;DHT22;35493;50.276;9.372;2024-01-15T07:53:04;-3276.40;87.00
49413;DHT22;35493;50.276;9.372;2024-01-15T07:55:37;-3276.40;87.10
49413;DHT22;35493;50.276;9.372;2024-01-15T07:58:10;-3276.40;87.10
49413;DHT22;35493;50.276;9.372;2024-01-15T08:00:44;-3276.40;87.20
49413;DHT22;35493;50.276;9.372;2024-01-15T08:03:17;-3276.40;87.20
49413;DHT22;35493;50.276;9.372;2024-01-15T08:05:50;-3276.50;87.20
49413;DHT22;35493;50.276;9.372;2024-01-15T08:08:25;-3276.50;87.20
49413;DHT22;35493;50.276;9.372;2024-01-15T08:10:59;-3276.40;87.20
49413;DHT22;35493;50.276;9.372;2024-01-15T08:13:32;-3276.40;87.20
49413;DHT22;35493;50.276;9.372;2024-01-15T08:16:06;-3276.40;87.30
49413;DHT22;35493;50.276;9.372;2024-01-15T08:18:41;-3276.50;87.20
49413;DHT22;35493;50.276;9.372;2024-01-15T08:21:14;-3276.50;87.30
49413;DHT22;35493;50.276;9.372;2024-01-15T08:23:47;-3276.50;87.20
49413;DHT22;35493;50.276;9.372;2024-01-15T08:26:20;-3276.50;87.20
49413;DHT22;35493;50.276;9.372;2024-01-15T08:28:53;-3276.50;87.30
49413;DHT22;35493;50.276;9.372;2024-01-15T08:31:27;-3276.50;87.30
49413;DHT22;35493;50.276;9.372;2024-01-15T08:34:01;-3276.50;87.20
49413;DHT22;35493;50.276;9.372;2024-01-15T08:36:34;-3276.50;87.20
49413;DHT22;35493;50.276;9.372;2024-01-15T08:39:08;-3276.50;87.20
49413;DHT22;35493;50.276;9.372;2024-01-15T08:41:42;-3276.50;87.30
49413;DHT22;35493;50.276;9.372;2024-01-15T08:44:15;-3276.50;87.40
49413;DHT22;35493;50.276;9.372;2024-01-15T08:46:49;-3276.50;87.50
49413;DHT22;35493;50.276;9.372;2024-01-15T08:49:23;-3276.60;87.40
49413;DHT22;35493;50.276;9.372;2024-01-15T08:51:56;-3276.60;87.30
49413;DHT22;35493;50.276;9.372;2024-01-15T08:54:29;-3276.50;87.50
49413;DHT22;35493;50.276;9.372;2024-01-15T08:57:02;-3276.60;87.40
49413;DHT22;35493;50.276;9.372;2024-01-15T08:59:35;-3276.50;87.40
49413;DHT22;35493;50.276;9.372;2024-01-15T09:02:09;-3276.50;87.50
49413;DHT22;35493;50.276;9.372;2024-01-15T09:04:43;-3276.60;87.40
49413;DHT22;35493;50.276;9.372;2024-01-15T09:07:16;-3276.60;87.40
49413;DHT22;35493;50.276;9.372;2024-01-15T09:09:49;-3276.60;87.40
49413;DHT22;35493;50.276;9.372;2024-01-15T09:12:22;-3276.60;87.20
49413;DHT22;35493;50.276;9.372;2024-01-15T09:14:55;-3276.60;87.40
49413;DHT22;35493;50.276;9.372;2024-01-15T09:17:29;-3276.60;87.50
49413;DHT22;35493;50.276;9.372;2024-01-15T09:20:03;-3276.60;87.40
49413;DHT22;35493;50.276;9.372;2024-01-15T09:22:37;-3276.60;87.40
49413;DHT22;35493;50.276;9.372;2024-01-15T09:25:11;-3276.70;87.40
49413;DHT22;35493;50.276;9.372;2024-01-15T09:27:44;-3276.70;87.30
49413;DHT22;35493;50.276;9.372;2024-01-15T09:30:17;-3276.70;87.40
49413;DHT22;35493;50.276;9.372;2024-01-15T09:32:51;-3276.70;87.50
49413;DHT22;35493;50.276;9.372;2024-01-15T09:35:25;0.00;87.40
49413;DHT22;35493;50.276;9.372;2024-01-15T09:37:58;-3276.70;87.30
49413;DHT22;35493;50.276;9.372;2024-01-15T09:40:32;0.00;87.40
49413;DHT22;35493;50.276;9.372;2024-01-15T09:43:06;0.00;87.20
49413;DHT22;35493;50.276;9.372;2024-01-15T09:45:39;0.00;87.40
49413;DHT22;35493;50.276;9.372;2024-01-15T09:48:13;0.00;87.40
49413;DHT22;35493;50.276;9.372;2024-01-15T09:50:47;0.00;87.30
49413;DHT22;35493;50.276;9.372;2024-01-15T09:53:20;0.00;87.40
49413;DHT22;35493;50.276;9.372;2024-01-15T09:55:53;0.00;87.40
49413;DHT22;35493;50.276;9.372;2024-01-15T09:58:26;0.00;87.30
49413;DHT22;35493;50.276;9.372;2024-01-15T10:01:02;0.00;87.50
49413;DHT22;35493;50.276;9.372;2024-01-15T10:03:37;0.00;87.40
49413;DHT22;35493;50.276;9.372;2024-01-15T10:06:12;0.00;87.30
49413;DHT22;35493;50.276;9.372;2024-01-15T10:08:49;0.00;87.40
49413;DHT22;35493;50.276;9.372;2024-01-15T10:11:23;0.00;87.40
49413;DHT22;35493;50.276;9.372;2024-01-15T10:13:56;0.00;87.40
49413;DHT22;35493;50.276;9.372;2024-01-15T10:16:29;0.00;87.30
49413;DHT22;35493;50.276;9.372;2024-01-15T10:19:03;0.00;87.30
49413;DHT22;35493;50.276;9.372;2024-01-15T10:21:37;0.00;87.40
49413;DHT22;35493;50.276;9.372;2024-01-15T10:24:10;0.10;87.20
49413;DHT22;35493;50.276;9.372;2024-01-15T10:26:43;0.10;87.30
49413;DHT22;35493;50.276;9.372;2024-01-15T10:29:24;0.20;87.10
49413;DHT22;35493;50.276;9.372;2024-01-15T10:31:57;0.10;87.10
49413;DHT22;35493;50.276;9.372;2024-01-15T10:34:31;0.10;87.10
49413;DHT22;35493;50.276;9.372;2024-01-15T10:37:06;0.10;87.00
49413;DHT22;35493;50.276;9.372;2024-01-15T10:39:40;0.10;87.00
49413;DHT22;35493;50.276;9.372;2024-01-15T10:42:13;0.20;87.20
49413;DHT22;35493;50.276;9.372;2024-01-15T10:44:40;0.20;87.00
49413;DHT22;35493;50.276;9.372;2024-01-15T10:47:15;0.30;86.90
49413;DHT22;35493;50.276;9.372;2024-01-15T10:49:49;0.30;86.90
49413;DHT22;35493;50.276;9.372;2024-01-15T10:52:23;0.30;86.70
49413;DHT22;35493;50.276;9.372;2024-01-15T10:54:56;0.20;86.80
49413;DHT22;35493;50.276;9.372;2024-01-15T10:57:30;0.20;86.80
49413;DHT22;35493;50.276;9.372;2024-01-15T11:00:10;0.30;86.80
49413;DHT22;35493;50.276;9.372;2024-01-15T11:02:47;0.30;86.70
49413;DHT22;35493;50.276;9.372;2024-01-15T11:05:21;0.40;86.70
49413;DHT22;35493;50.276;9.372;2024-01-15T11:07:55;0.40;86.80
49413;DHT22;35493;50.276;9.372;2024-01-15T11:10:38;0.40;86.70
49413;DHT22;35493;50.276;9.372;2024-01-15T11:13:13;0.40;86.60
49413;DHT22;35493;50.276;9.372;2024-01-15T11:15:59;0.50;86.50
49413;DHT22;35493;50.276;9.372;2024-01-15T11:18:35;0.50;86.50
49413;DHT22;35493;50.276;9.372;2024-01-15T11:21:22;0.50;86.30
49413;DHT22;35493;50.276;9.372;2024-01-15T11:23:57;0.60;86.30
49413;DHT22;35493;50.276;9.372;2024-01-15T11:26:32;0.70;86.20
49413;DHT22;35493;50.276;9.372;2024-01-15T11:29:05;0.70;86.10
49413;DHT22;35493;50.276;9.372;2024-01-15T11:37:24;0.70;85.90
49413;DHT22;35493;50.276;9.372;2024-01-15T11:40:01;0.70;85.90
49413;DHT22;35493;50.276;9.372;2024-01-15T11:42:35;0.70;85.80
49413;DHT22;35493;50.276;9.372;2024-01-15T11:45:08;0.70;85.80
49413;DHT22;35493;50.276;9.372;2024-01-15T11:47:58;0.80;85.70
49413;DHT22;35493;50.276;9.372;2024-01-15T11:50:38;0.80;85.70
49413;DHT22;35493;50.276;9.372;2024-01-15T11:53:19;0.90;85.50
49413;DHT22;35493;50.276;9.372;2024-01-15T11:55:55;0.90;85.60
49413;DHT22;35493;50.276;9.372;2024-01-15T11:58:30;1.00;85.60
49413;DHT22;35493;50.276;9.372;2024-01-15T12:01:04;0.90;85.40
49413;DHT22;35493;50.276;9.372;2024-01-15T12:03:37;1.00;85.60
49413;DHT22;35493;50.276;9.372;2024-01-15T12:06:10;1.00;85.40
49413;DHT22;35493;50.276;9.372;2024-01-15T12:08:45;1.00;85.50
49413;DHT22;35493;50.276;9.372;2024-01-15T12:11:19;1.00;85.30
49413;DHT22;35493;50.276;9.372;2024-01-15T12:13:53;1.00;85.40
49413;DHT22;35493;50.276;9.372;2024-01-15T12:16:29;1.00;85.40
49413;DHT22;35493;50.276;9.372;2024-01-15T12:19:02;1.10;85.30
49413;DHT22;35493;50.276;9.372;2024-01-15T12:21:35;1.10;85.30
49413;DHT22;35493;50.276;9.372;2024-01-15T12:24:03;1.10;85.20
49413;DHT22;35493;50.276;9.372;2024-01-15T12:26:36;1.10;85.20
49413;DHT22;35493;50.276;9.372;2024-01-15T12:29:09;1.10;85.30
49413;DHT22;35493;50.276;9.372;2024-01-15T12:31:43;1.20;85.30
49413;DHT22;35493;50.276;9.372;2024-01-15T12:34:17;1.20;85.20
49413;DHT22;35493;50.276;9.372;2024-01-15T12:36:43;1.20;85.20
49413;DHT22;35493;50.276;9.372;2024-01-15T12:39:21;1.20;85.20
49413;DHT22;35493;50.276;9.372;2024-01-15T12:41:55;1.20;85.30
49413;DHT22;35493;50.276;9.372;2024-01-15T12:44:28;1.20;85.50
49413;DHT22;35493;50.276;9.372;2024-01-15T12:47:01;1.20;85.80
49413;DHT22;35493;50.276;9.372;2024-01-15T12:49:35;1.10;86.10
49413;DHT22;35493;50.276;9.372;2024-01-15T12:52:09;1.10;86.50
49413;DHT22;35493;50.276;9.372;2024-01-15T12:54:43;1.10;86.70
49413;DHT22;35493;50.276;9.372;2024-01-15T12:57:16;1.00;87.00
49413;DHT22;35493;50.276;9.372;2024-01-15T12:59:49;1.00;87.20
49413;DHT22;35493;50.276;9.372;2024-01-15T13:02:16;1.00;87.60
49413;DHT22;35493;50.276;9.372;2024-01-15T13:04:50;1.00;88.00
49413;DHT22;35493;50.276;9.372;2024-01-15T13:07:23;0.90;88.50
49413;DHT22;35493;50.276;9.372;2024-01-15T13:09:57;0.90;88.60
49413;DHT22;35493;50.276;9.372;2024-01-15T13:12:31;1.00;88.80
49413;DHT22;35493;50.276;9.372;2024-01-15T13:15:05;0.90;88.80
49413;DHT22;35493;50.276;9.372;2024-01-15T13:17:43;0.90;88.80
49413;DHT22;35493;50.276;9.372;2024-01-15T13:20:16;0.90;88.80
49413;DHT22;35493;50.276;9.372;2024-01-15T13:22:49;0.90;88.80
49413;DHT22;35493;50.276;9.372;2024-01-15T13:25:17;0.90;88.90
49413;DHT22;35493;50.276;9.372;2024-01-15T13:27:50;0.90;88.90
49413;DHT22;35493;50.276;9.372;2024-01-15T13:30:24;1.00;89.00
49413;DHT22;35493;50.276;9.372;2024-01-15T13:32:57;1.00;88.90
49413;DHT22;35493;50.276;9.372;2024-01-15T13:35:35;0.90;89.00
49413;DHT22;35493;50.276;9.372;2024-01-15T13:38:09;0.90;88.90
49413;DHT22;35493;50.276;9.372;2024-01-15T13:40:44;0.90;88.90
49413;DHT22;35493;50.276;9.372;2024-01-15T13:43:18;1.00;88.80
49413;DHT22;35493;50.276;9.372;2024-01-15T13:45:51;0.90;88.80
49413;DHT22;35493;50.276;9.372;2024-01-15T13:48:26;0.90;88.90
49413;DHT22;35493;50.276;9.372;2024-01-15T13:50:59;1.00;88.70
49413;DHT22;35493;50.276;9.372;2024-01-15T13:53:32;1.00;88.70
49413;DHT22;35493;50.276;9.372;2024-01-15T13:56:00;1.00;88.70
49413;DHT22;35493;50.276;9.372;2024-01-15T13:58:33;1.00;88.60
49413;DHT22;35493;50.276;9.372;2024-01-15T14:00:59;1.00;88.60
49413;DHT22;35493;50.276;9.372;2024-01-15T14:03:33;1.00;88.50
49413;DHT22;35493;50.276;9.372;2024-01-15T14:06:07;1.00;88.60
49413;DHT22;35493;50.276;9.372;2024-01-15T14:08:42;1.00;88.50
49413;DHT22;35493;50.276;9.372;2024-01-15T14:11:16;1.00;88.60
49413;DHT22;35493;50.276;9.372;2024-01-15T14:13:50;1.00;88.50
49413;DHT22;35493;50.276;9.372;2024-01-15T14:16:16;1.00;88.40
49413;DHT22;35493;50.276;9.372;2024-01-15T14:18:50;1.10;88.40
49413;DHT22;35493;50.276;9.372;2024-01-15T14:21:23;1.10;88.20
49413;DHT22;35493;50.276;9.372;2024-01-15T14:23:56;1.10;88.20
49413;DHT22;35493;50.276;9.372;2024-01-15T14:26:24;1.10;88.20
49413;DHT22;35493;50.276;9.372;2024-01-15T14:28:57;1.10;88.20
49413;DHT22;35493;50.276;9.372;2024-01-15T14:31:31;1.00;88.20
49413;DHT22;35493;50.276;9.372;2024-01-15T14:34:05;1.10;88.10
49413;DHT22;35493;50.276;9.372;2024-01-15T14:36:39;1.10;88.10
49413;DHT22;35493;50.276;9.372;2024-01-15T14:39:12;1.10;88.00
49413;DHT22;35493;50.276;9.372;2024-01-15T14:41:46;1.10;88.00
49413;DHT22;35493;50.276;9.372;2024-01-15T14:44:20;1.10;87.90
49413;DHT22;35493;50.276;9.372;2024-01-15T14:46:54;1.10;87.90
49413;DHT22;35493;50.276;9.372;2024-01-15T14:49:28;1.10;87.80
49413;DHT22;35493;50.276;9.372;2024-01-15T14:52:01;1.20;87.80
49413;DHT22;35493;50.276;9.372;2024-01-15T14:54:35;1.20;87.70
49413;DHT22;35493;50.276;9.372;2024-01-15T14:57:16;1.10;87.70
49413;DHT22;35493;50.276;9.372;2024-01-15T14:59:50;1.10;87.80
49413;DHT22;35493;50.276;9.372;2024-01-15T15:02:23;1.20;87.70
49413;DHT22;35493;50.276;9.372;2024-01-15T15:05:00;1.10;87.70
49413;DHT22;35493;50.276;9.372;2024-01-15T15:07:33;1.20;87.70
49413;DHT22;35493;50.276;9.372;2024-01-15T15:10:08;1.20;87.60
49413;DHT22;35493;50.276;9.372;2024-01-15T15:12:44;1.20;87.50
49413;DHT22;35493;50.276;9.372;2024-01-15T15:15:24;1.20;87.50
49413;DHT22;35493;50.276;9.372;2024-01-15T15:17:57;1.30;87.30
49413;DHT22;35493;50.276;9.372;2024-01-15T15:20:30;1.20;87.30
49413;DHT22;35493;50.276;9.372;2024-01-15T15:23:03;1.20;87.20
49413;DHT22;35493;50.276;9.372;2024-01-15T15:25:40;1.20;87.40
49413;DHT22;35493;50.276;9.372;2024-01-15T15:28:16;1.20;87.40
49413;DHT22;35493;50.276;9.372;2024-01-15T15:30:43;1.20;87.10
49413;DHT22;35493;50.276;9.372;2024-01-15T15:33:17;1.30;87.00
49413;DHT22;35493;50.276;9.372;2024-01-15T15:35:51;1.20;87.00
49413;DHT22;35493;50.276;9.372;2024-01-15T15:38:18;1.30;86.90
49413;DHT22;35493;50.276;9.372;2024-01-15T15:40:51;1.30;87.00
49413;DHT22;35493;50.276;9.372;2024-01-15T15:43:25;1.30;86.90
49413;DHT22;35493;50.276;9.372;2024-01-15T15:45:52;1.30;86.90
49413;DHT22;35493;50.276;9.372;2024-01-15T15:48:25;1.30;86.90
49413;DHT22;35493;50.276;9.372;2024-01-15T15:50:58;1.30;86.80
49413;DHT22;35493;50.276;9.372;2024-01-15T15:53:32;1.30;86.80
49413;DHT22;35493;50.276;9.372;2024-01-15T15:56:05;1.30;86.70
49413;DHT22;35493;50.276;9.372;2024-01-15T15:58:40;1.30;86.60
49413;DHT22;35493;50.276;9.372;2024-01-15T16:01:14;1.40;86.50